createdAt,value
2023-03-18T00:01:11.374Z,11.05
2023-03-18T00:03:39.526Z,10.73
2023-03-18T00:06:10.400Z,9.95
2023-03-18T00:08:41.070Z,10.07
2023-03-18T00:11:11.088Z,10.50
2023-03-18T00:13:39.539Z,10.57
2023-03-18T00:16:08.991Z,9.20
2023-03-18T00:18:36.936Z,10.50
2023-03-18T00:21:06.102Z,10.13
2023-03-18T00:23:35.046Z,9.65
2023-03-18T00:26:04.944Z,9.77
2023-03-18T00:28:33.029Z,10.40
2023-03-18T00:31:08.834Z,9.65
2023-03-18T00:33:38.166Z,9.38
2023-03-18T00:36:10.050Z,9.70
2023-03-18T00:38:38.540Z,9.50
2023-03-18T00:41:12.289Z,8.48
2023-03-18T00:43:47.298Z,9.32
2023-03-18T00:46:17.865Z,8.63
2023-03-18T00:48:46.769Z,9.30
2023-03-18T00:51:17.339Z,9.15
2023-03-18T00:53:48.592Z,8.77
2023-03-18T00:56:19.533Z,9.45
2023-03-18T00:58:48.002Z,9.45
2023-03-18T01:01:17.651Z,9.88
2023-03-18T01:03:46.749Z,9.68
2023-03-18T01:06:17.731Z,9.65
2023-03-18T01:08:45.734Z,10.32
2023-03-18T01:11:14.561Z,10.40
2023-03-18T01:13:44.228Z,10.35
2023-03-18T01:16:12.343Z,10.82
2023-03-18T01:18:41.499Z,10.95
2023-03-18T01:21:11.959Z,11.90
2023-03-18T01:23:47.128Z,10.18
2023-03-18T01:26:16.815Z,11.27
2023-03-18T01:28:48.068Z,11.52
2023-03-18T01:31:16.693Z,12.02
2023-03-18T01:33:47.907Z,11.73
2023-03-18T01:36:17.533Z,12.18
2023-03-18T01:38:52.159Z,13.57
2023-03-18T01:41:20.351Z,14.88
2023-03-18T01:43:49.834Z,14.10
2023-03-18T01:46:37.103Z,14.82
2023-03-18T01:49:10.811Z,16.60
2023-03-18T01:51:40.877Z,16.40
2023-03-18T01:54:10.397Z,17.35
2023-03-18T01:56:41.762Z,17.45
2023-03-18T01:59:13.916Z,17.73
2023-03-18T02:01:46.656Z,16.75
2023-03-18T02:04:16.315Z,17.00
2023-03-18T02:06:44.669Z,19.33
2023-03-18T02:09:13.394Z,18.02
2023-03-18T02:11:46.822Z,20.40
2023-03-18T02:14:21.555Z,19.45
2023-03-18T02:16:55.805Z,19.92
2023-03-18T02:22:06.424Z,19.80
2023-03-18T02:24:43.795Z,19.58
2023-03-18T02:27:19.904Z,20.27
2023-03-18T02:29:50.134Z,20.85
2023-03-18T02:32:22.651Z,19.95
2023-03-18T02:34:51.481Z,20.95
2023-03-18T02:37:19.445Z,21.73
2023-03-18T02:39:47.446Z,22.80
2023-03-18T02:42:18.238Z,21.40
2023-03-18T02:44:53.792Z,20.80
2023-03-18T02:47:32.856Z,21.30
2023-03-18T02:50:00.966Z,21.08
2023-03-18T02:52:29.051Z,23.08
2023-03-18T02:54:59.209Z,23.40
2023-03-18T02:57:28.611Z,22.85
2023-03-18T02:59:59.539Z,23.00
2023-03-18T03:02:27.601Z,23.55
2023-03-18T03:04:55.566Z,23.42
2023-03-18T03:07:27.780Z,24.02
2023-03-18T03:09:58.088Z,23.98
2023-03-18T03:12:26.132Z,22.88
2023-03-18T03:14:58.818Z,24.52
2023-03-18T03:17:29.037Z,24.45
2023-03-18T03:19:57.865Z,26.48
2023-03-18T03:22:27.044Z,28.02
2023-03-18T03:24:55.466Z,25.70
2023-03-18T03:27:23.538Z,27.17
2023-03-18T03:29:51.888Z,26.75
2023-03-18T03:32:23.079Z,27.77
2023-03-18T03:34:52.156Z,27.75
2023-03-18T03:37:20.099Z,27.70
2023-03-18T03:39:49.088Z,27.75
2023-03-18T03:42:17.375Z,27.40
2023-03-18T03:44:45.791Z,27.33
2023-03-18T03:47:13.953Z,27.45
2023-03-18T03:49:43.599Z,28.20
2023-03-18T03:52:13.210Z,27.83
2023-03-18T03:54:42.979Z,26.58
2023-03-18T03:57:11.842Z,27.77
2023-03-18T03:59:39.782Z,27.73
2023-03-18T04:02:15.966Z,27.52
2023-03-18T04:04:46.306Z,28.42
2023-03-18T04:07:24.181Z,28.88
2023-03-18T04:09:52.520Z,27.88
2023-03-18T04:12:21.143Z,28.05
2023-03-18T04:14:56.703Z,28.25
2023-03-18T04:17:25.558Z,27.35
2023-03-18T04:19:55.544Z,27.67
2023-03-18T04:22:29.629Z,29.98
2023-03-18T04:24:58.496Z,27.58
2023-03-18T04:27:26.693Z,29.48
2023-03-18T04:29:55.258Z,27.52
2023-03-18T04:32:28.940Z,28.23
2023-03-18T04:34:58.789Z,27.55
2023-03-18T04:37:27.036Z,28.25
2023-03-18T04:39:58.432Z,27.73
2023-03-18T04:42:26.802Z,27.60
2023-03-18T04:44:54.837Z,27.15
2023-03-18T04:47:23.864Z,28.27
2023-03-18T04:49:53.501Z,26.42
2023-03-18T04:52:23.009Z,26.52
2023-03-18T04:54:51.250Z,27.38
2023-03-18T04:57:19.819Z,26.05
2023-03-18T04:59:52.717Z,25.58
2023-03-18T05:02:21.129Z,25.70
2023-03-18T05:04:49.780Z,26.25
2023-03-18T05:07:18.519Z,25.92
2023-03-18T05:09:58.034Z,23.95
2023-03-18T05:12:26.597Z,24.77
2023-03-18T05:14:54.901Z,24.80
2023-03-18T05:17:25.835Z,23.58
2023-03-18T05:19:58.702Z,24.50
2023-03-18T05:22:27.541Z,22.02
2023-03-18T05:25:11.097Z,23.83
2023-03-18T05:27:41.803Z,22.77
2023-03-18T05:30:31.987Z,22.70
2023-03-18T05:33:00.697Z,22.50
2023-03-18T05:35:43.414Z,22.45
2023-03-18T05:38:11.623Z,22.25
2023-03-18T05:40:41.296Z,23.55
2023-03-18T05:43:18.050Z,23.55
2023-03-18T05:45:52.055Z,23.95
2023-03-18T05:48:24.838Z,23.92
2023-03-18T05:50:58.743Z,24.10
2023-03-18T05:53:28.674Z,24.13
2023-03-18T05:56:08.293Z,23.48
2023-03-18T05:58:36.283Z,24.13
2023-03-18T06:01:26.116Z,26.17
2023-03-18T06:03:55.587Z,25.33
2023-03-18T06:06:23.699Z,27.00
2023-03-18T06:08:52.690Z,26.17
2023-03-18T06:11:22.221Z,26.80
2023-03-18T06:13:52.237Z,27.90
2023-03-18T06:16:20.467Z,28.73
2023-03-18T06:18:49.040Z,28.38
2023-03-18T06:21:17.254Z,28.00
2023-03-18T06:23:45.568Z,28.27
2023-03-18T06:26:14.152Z,28.58
2023-03-18T06:28:49.786Z,26.90
2023-03-18T06:31:19.943Z,29.83
2023-03-18T06:33:49.511Z,30.10
2023-03-18T06:36:19.332Z,30.38
2023-03-18T06:38:50.036Z,28.52
2023-03-18T06:41:19.116Z,29.35
2023-03-18T06:44:01.214Z,29.75
2023-03-18T06:46:31.250Z,27.77
2023-03-18T06:49:00.417Z,29.60
2023-03-18T06:51:33.733Z,29.40
2023-03-18T06:54:02.521Z,31.15
2023-03-18T06:56:33.874Z,29.55
2023-03-18T06:59:13.107Z,29.92
2023-03-18T07:01:41.385Z,28.02
2023-03-18T07:04:09.448Z,28.35
2023-03-18T07:06:38.035Z,28.52
2023-03-18T07:09:06.662Z,29.63
2023-03-18T07:11:34.584Z,31.17
2023-03-18T07:14:08.434Z,29.85
2023-03-18T07:16:39.038Z,29.17
2023-03-18T07:19:07.330Z,27.63
2023-03-18T07:21:35.987Z,28.60
2023-03-18T07:24:05.719Z,29.98
2023-03-18T07:26:33.636Z,29.05
2023-03-18T07:29:01.854Z,26.75
2023-03-18T07:31:30.863Z,26.80
2023-03-18T07:34:00.385Z,27.02
2023-03-18T07:36:28.838Z,27.83
2023-03-18T07:38:56.823Z,28.48
2023-03-18T07:41:26.059Z,27.10
2023-03-18T07:43:55.431Z,26.40
2023-03-18T07:46:23.980Z,27.35
2023-03-18T07:48:51.966Z,27.83
2023-03-18T07:51:21.722Z,27.35
2023-03-18T07:53:50.649Z,27.63
2023-03-18T07:56:18.989Z,28.02
2023-03-18T07:58:48.268Z,25.73
2023-03-18T08:01:18.408Z,27.70
2023-03-18T08:03:47.488Z,28.10
2023-03-18T08:06:18.115Z,27.85
2023-03-18T08:08:49.344Z,27.10
2023-03-18T08:11:17.557Z,27.33
2023-03-18T08:13:45.850Z,30.05
2023-03-18T08:16:13.858Z,27.70
2023-03-18T08:18:42.108Z,27.75
2023-03-18T08:21:10.727Z,28.48
2023-03-18T08:23:39.262Z,27.05
2023-03-18T08:26:09.433Z,27.13
2023-03-18T08:28:37.650Z,25.98
2023-03-18T08:31:06.953Z,28.00
2023-03-18T08:33:35.333Z,25.92
2023-03-18T08:36:04.082Z,25.92
2023-03-18T08:38:33.030Z,24.77
2023-03-18T08:41:02.446Z,25.70
2023-03-18T08:43:32.862Z,26.33
2023-03-18T08:46:02.613Z,24.95
2023-03-18T08:48:32.577Z,24.55
2023-03-18T08:51:01.553Z,25.88
2023-03-18T08:53:30.126Z,24.75
2023-03-18T08:55:58.263Z,26.00
2023-03-18T08:58:27.544Z,25.38
2023-03-18T09:00:57.690Z,25.17
2023-03-18T09:03:25.791Z,24.88
2023-03-18T09:05:55.649Z,23.77
2023-03-18T09:08:23.701Z,25.13
2023-03-18T09:10:53.943Z,25.17
2023-03-18T09:13:24.307Z,24.67
2023-03-18T09:15:53.222Z,25.10
2023-03-18T09:18:25.247Z,25.52
2023-03-18T09:20:54.825Z,26.23
2023-03-18T09:23:23.590Z,26.52
2023-03-18T09:25:51.751Z,26.77
2023-03-18T09:28:19.860Z,25.85
2023-03-18T09:30:48.815Z,26.27
2023-03-18T09:33:18.001Z,26.58
2023-03-18T09:35:49.015Z,25.40
2023-03-18T09:38:19.692Z,24.60
2023-03-18T09:40:56.577Z,24.92
2023-03-18T09:43:40.344Z,26.38
2023-03-18T09:49:17.972Z,25.45
2023-03-18T09:51:58.999Z,25.98
2023-03-18T09:54:39.056Z,25.15
2023-03-18T09:57:14.339Z,26.95
2023-03-18T09:59:49.062Z,25.67
2023-03-18T10:02:24.754Z,27.25
2023-03-18T10:04:57.625Z,26.52
2023-03-18T10:07:32.716Z,26.52
2023-03-18T10:10:05.052Z,26.85
2023-03-18T10:12:36.453Z,27.88
2023-03-18T10:15:13.887Z,25.80
2023-03-18T10:17:45.486Z,25.63
2023-03-18T10:20:21.677Z,25.95
2023-03-18T10:23:21.459Z,25.63
2023-03-18T10:25:53.586Z,25.92
2023-03-18T10:28:42.574Z,26.25
2023-03-18T10:31:29.670Z,26.42
2023-03-18T10:34:00.086Z,24.60
2023-03-18T10:36:32.979Z,27.30
2023-03-18T10:39:03.802Z,26.80
2023-03-18T10:41:35.380Z,26.58
2023-03-18T10:44:08.423Z,26.27
2023-03-18T10:46:37.668Z,26.10
2023-03-18T10:49:13.733Z,28.13
2023-03-18T10:51:48.035Z,24.98
2023-03-18T10:54:24.430Z,21.35
2023-03-18T10:56:53.408Z,23.25
2023-03-18T10:59:24.719Z,23.17
2023-03-18T11:01:58.719Z,23.67
2023-03-18T11:04:30.672Z,21.23
2023-03-18T11:07:02.899Z,19.85
2023-03-18T11:09:36.253Z,18.92
2023-03-18T11:12:06.757Z,18.67
2023-03-18T11:14:37.560Z,20.55
2023-03-18T11:17:08.122Z,19.77
2023-03-18T11:19:39.818Z,17.52
2023-03-18T11:22:20.707Z,20.05
2023-03-18T11:25:02.432Z,21.90
2023-03-18T11:27:38.875Z,17.33
2023-03-18T11:30:31.067Z,19.27
2023-03-18T11:33:07.231Z,15.38
2023-03-18T11:35:42.011Z,17.25
2023-03-18T11:38:16.670Z,15.18
2023-03-18T11:40:46.377Z,14.35
2023-03-18T11:43:19.913Z,13.98
2023-03-18T11:48:31.574Z,16.13
2023-03-18T11:51:12.082Z,15.32
2023-03-18T11:53:56.710Z,13.82
2023-03-18T11:56:34.998Z,14.77
2023-03-18T11:59:36.085Z,13.80
2023-03-18T12:02:32.192Z,13.73
2023-03-18T12:05:22.834Z,12.82
2023-03-18T12:08:01.470Z,12.90
2023-03-18T12:10:36.210Z,12.02
2023-03-18T12:13:21.001Z,15.30
2023-03-18T12:15:58.297Z,14.18
2023-03-18T12:18:45.385Z,16.15
2023-03-18T12:21:31.025Z,16.65
2023-03-18T12:24:20.597Z,16.85
2023-03-18T12:26:55.761Z,15.15
2023-03-18T12:29:50.335Z,14.63
2023-03-18T12:32:27.447Z,14.75
2023-03-18T12:35:22.880Z,14.48
2023-03-18T12:38:11.531Z,13.13
2023-03-18T12:40:48.870Z,13.80
2023-03-18T12:43:30.349Z,13.20
2023-03-18T12:46:05.391Z,13.43
2023-03-18T12:48:44.357Z,13.95
2023-03-18T12:51:18.242Z,15.10
2023-03-18T12:56:20.060Z,14.05
2023-03-18T12:58:52.277Z,12.38
2023-03-18T13:01:28.068Z,11.43
2023-03-18T13:04:01.500Z,10.57
2023-03-18T13:06:35.499Z,9.88
2023-03-18T13:09:08.547Z,10.65
2023-03-18T13:11:59.002Z,9.40
2023-03-18T13:14:32.679Z,9.82
2023-03-18T13:17:03.043Z,10.30
2023-03-18T13:19:31.991Z,10.75
2023-03-18T13:22:13.642Z,9.80
2023-03-18T13:24:53.930Z,9.10
2023-03-18T13:27:45.110Z,9.13
2023-03-18T13:30:24.106Z,7.90
2023-03-18T13:33:10.138Z,7.22
2023-03-18T13:35:58.642Z,6.18
2023-03-18T13:38:55.480Z,6.22
2023-03-18T13:41:38.493Z,5.43
2023-03-18T13:44:13.312Z,5.90
2023-03-18T13:46:43.615Z,5.60
2023-03-18T13:49:21.844Z,4.40
2023-03-18T13:51:53.985Z,4.97
2023-03-18T13:54:22.236Z,4.43
2023-03-18T13:56:55.736Z,4.72
2023-03-18T14:02:32.699Z,4.57
2023-03-18T14:05:02.810Z,3.25
2023-03-18T14:07:31.907Z,3.65
2023-03-18T14:10:20.570Z,3.28
2023-03-18T14:12:49.441Z,3.30
2023-03-18T14:15:38.475Z,2.90
2023-03-18T14:18:20.355Z,3.20
2023-03-18T14:20:54.541Z,3.28
2023-03-18T14:23:35.575Z,3.13
2023-03-18T14:26:07.767Z,3.38
2023-03-18T14:28:46.593Z,3.08
2023-03-18T14:31:20.805Z,3.10
2023-03-18T14:44:08.938Z,3.90
2023-03-18T14:46:42.987Z,4.18
2023-03-18T14:49:43.056Z,4.22
2023-03-18T14:52:23.137Z,4.13
2023-03-18T14:54:53.437Z,4.75
2023-03-18T14:57:23.535Z,4.78
2023-03-18T14:59:51.775Z,5.25
2023-03-18T15:02:25.982Z,4.70
2023-03-18T15:04:56.631Z,5.30
2023-03-18T15:07:35.795Z,5.25
2023-03-18T15:10:14.361Z,8.05
2023-03-18T15:12:42.767Z,5.10
2023-03-18T15:15:15.423Z,4.93
